RCKH

Kaohsiung International Airport

Kaohsiung City, Taiwan
TAF RCKH 241700Z 2418/2524 03005KT 9999 FEW015 SCT050 TEMPO 2420/2501 5000 BR BECMG 2501/2503 29008KT TEMPO 2506/2510 5000 SHRA FEW012 FEW015CB BKN020 BKN050 BECMG 2510/2512 33005KT TEMPO 2518/2524 5000 BR
Issued Valid From Valid To
Sep-24 @ 17:00 UTC
(2 hours ago)
Sep-24 @ 18:00 UTC
(an hour ago)
Sep-26 @ 00:00 UTC
(-1 days ago)
Sep-24 @ 18:00 to Sep-25 @ 01:00
TAF RCKH 241700Z 2418/2524 03005KT 9999 FEW015 SCT050
Wind Visibility Clouds
30° at 5 knots 10,000+ meters
  • Few at 1,500' AGL
  • Scattered at 5,000' AGL
Temporary Sep-24 @ 20:00 to Sep-25 @ 01:00
TEMPO 2420/2501 5000 BR
Visibility Conditions
5,005 meters
  • Mist
Becoming Sep-25 @ 01:00 to Sep-25 @ 10:00
BECMG 2501/2503 29008KT
Wind Visibility Clouds
290° at 8 knots 10,000+ meters
  • Few at 1,500' AGL
  • Scattered at 5,000' AGL
Temporary Sep-25 @ 06:00 to Sep-25 @ 10:00
TEMPO 2506/2510 5000 SHRA FEW012 FEW015CB BKN020 BKN050
Visibility Clouds Conditions
5,005 meters
  • Few at 1,200' AGL
  • Few at 1,500' AGL
  • Broken at 2,000' AGL
  • Rain
Becoming Sep-25 @ 10:00 to Sep-26 @ 00:00
BECMG 2510/2512 33005KT
Wind Visibility Clouds
330° at 5 knots 10,000+ meters
  • Few at 1,500' AGL
  • Scattered at 5,000' AGL
Temporary Sep-25 @ 18:00 to Sep-26 @ 00:00
TEMPO 2518/2524 5000 BR
Visibility Conditions
5,005 meters
  • Mist
TAF RCKH 241700Z 2418/2524 03005KT 9999 FEW015 SCT050 TEMPO 2420/2501 5000 BR BECMG 2501/2503 29008KT TEMPO 2506/2510 5000 SHRA FEW012 FEW015CB BKN020 BKN050 BECMG 2510/2512 33005KT TEMPO 2518/2524 5000 BR
Issued Sep-24 @ 17:00 UTC
(2 hours ago)
Valid From Sep-24 @ 18:00 UTC
(an hour ago)
Valid To Sep-26 @ 00:00 UTC
(-1 days ago)
Sep-24 @ 18:00 - Sep-25 @ 01:00
Wind Visibility
30° at 5 knots 10,000+ meters
Clouds
  • Few at 1,500' AGL
  • Scattered at 5,000' AGL
Temporary Sep-24 @ 20:00 - Sep-25 @ 01:00
Conditions
  • Mist
Becoming Sep-25 @ 01:00 - Sep-25 @ 10:00
Wind Visibility
290° at 8 knots 10,000+ meters
Clouds
  • Few at 1,500' AGL
  • Scattered at 5,000' AGL
Temporary Sep-25 @ 06:00 - Sep-25 @ 10:00
Clouds
  • Few at 1,200' AGL
  • Few at 1,500' AGL
  • Broken at 2,000' AGL
Conditions
  • Rain
Becoming Sep-25 @ 10:00 - Sep-26 @ 00:00
Wind Visibility
330° at 5 knots 10,000+ meters
Clouds
  • Few at 1,500' AGL
  • Scattered at 5,000' AGL
Temporary Sep-25 @ 18:00 - Sep-26 @ 00:00
Conditions
  • Mist